PWSweather.com
Personal Weather Stations
Station Observations
WIKENOS15
47th Ave & 30th St, Kenosha, WI 53144

47th Ave & 30th StKenosha, WI 53144

Lat: 42.612, Lon: -87.866

Elevation: 697

Station Type: Oregon Scientific 100N

Latest ConditionsUpdated 10:30:00 PM CDT Tuesday, Jul 22, 2014
Currently Today's Max Today's Min Today's Average
Temperature 80.9°F27.2°C 88.6°F31.4°C 71.6°F22.0°C 81.8°F27.7°C
Dew Point 69.3°F20.7°C 79.3°F26.3°C 66.2°F19.0°C 74.6°F23.7°C
Winds 1.1 mph N1.8 kmh N 2.3 mph N3.7 kmh N - 0.7 mph 1.1 kmh
Wind Gusts 2.3 mph3.7 kmh 6.0 mph9.7 kmh - -
Humidity 68% 87% 68% 79%
Pressure 29.90 in1012.5 mb 29.98 in1015.2 mb 29.84 in1010.5 mb -
Hour Temp Dew Point Humidity Winds Wind Gusts Pressure Precip Precip Rate Daily Precip Total
10:30 PM 80.9°F27.2°C 69.3°F20.7°C 68% 1.1 mph N1.8 kmh N 2.3 mph3.7 kmh 29.90 in1012.5 mb 0.00 in0.0 mm 0.00 in/hr0.0 mm/hr 0.00 in0.0 mm
10:15 PM 81.3°F27.4°C 69.7°F20.9°C 68% 2.3 mph N3.7 kmh N 6.0 mph9.7 kmh 29.87 in1011.5 mb 0.00 in0.0 mm 0.00 in/hr0.0 mm/hr 0.00 in0.0 mm
10:00 PM 81.5°F27.5°C 72.8°F22.7°C 75% 2.2 mph NE3.5 kmh NE 2.3 mph3.7 kmh 29.88 in1011.9 mb 0.00 in0.0 mm 0.00 in/hr0.0 mm/hr 0.00 in0.0 mm
09:45 PM 82.1°F27.8°C 76.1°F24.5°C 82% 1.2 mph N1.9 kmh N 3.0 mph4.8 kmh 29.86 in1011.2 mb 0.00 in0.0 mm 0.00 in/hr0.0 mm/hr 0.00 in0.0 mm
09:30 PM 82.1°F27.8°C 77.1°F25.1°C 85% 2.3 mph WNW3.7 kmh WNW 3.0 mph4.8 kmh 29.85 in1010.8 mb 0.00 in0.0 mm 0.00 in/hr0.0 mm/hr 0.00 in0.0 mm
09:15 PM 81.8°F27.7°C 77.5°F25.3°C 87% Calm Calm 0.8 mph1.3 kmh 29.84 in1010.5 mb 0.00 in0.0 mm 0.00 in/hr0.0 mm/hr 0.00 in0.0 mm
09:00 PM 81.8°F27.7°C 77.2°F25.1°C 86% Calm Calm -- 29.85 in1010.8 mb 0.00 in0.0 mm 0.00 in/hr0.0 mm/hr 0.00 in0.0 mm
08:45 PM 82.1°F27.8°C 77.2°F25.1°C 85% Calm Calm -- 29.84 in1010.5 mb 0.00 in0.0 mm 0.00 in/hr0.0 mm/hr 0.00 in0.0 mm
08:30 PM 82.6°F28.1°C 77.3°F25.2°C 84% 0.2 mph WNW0.3 kmh WNW 0.8 mph1.3 kmh 29.85 in1010.8 mb 0.00 in0.0 mm 0.00 in/hr0.0 mm/hr 0.00 in0.0 mm
08:15 PM 83.3°F28.5°C 77.6°F25.3°C 83% Calm Calm -- 29.85 in1010.8 mb 0.00 in0.0 mm 0.00 in/hr0.0 mm/hr 0.00 in0.0 mm
08:00 PM 83.9°F28.8°C 77.8°F25.4°C 82% Calm Calm -- 29.85 in1010.8 mb 0.00 in0.0 mm 0.00 in/hr0.0 mm/hr 0.00 in0.0 mm
07:45 PM 84.5°F29.2°C 77.6°F25.3°C 80% Calm Calm -- 29.85 in1010.8 mb 0.00 in0.0 mm 0.00 in/hr0.0 mm/hr 0.00 in0.0 mm
07:30 PM 85.0°F29.4°C 77.8°F25.4°C 79% Calm Calm -- 29.85 in1010.8 mb 0.00 in0.0 mm 0.00 in/hr0.0 mm/hr 0.00 in0.0 mm
07:15 PM 85.4°F29.7°C 78.1°F25.6°C 79% 0.1 mph WNW0.2 kmh WNW 0.8 mph1.3 kmh 29.86 in1011.2 mb 0.00 in0.0 mm 0.00 in/hr0.0 mm/hr 0.00 in0.0 mm
07:00 PM 85.8°F29.9°C 78.1°F25.6°C 78% 0.1 mph WNW0.2 kmh WNW -- 29.85 in1010.8 mb 0.00 in0.0 mm 0.00 in/hr0.0 mm/hr 0.00 in0.0 mm
06:45 PM 87.0°F30.6°C 78.1°F25.6°C 75% 1.3 mph NW2.1 kmh NW 2.3 mph3.7 kmh 29.85 in1010.8 mb 0.00 in0.0 mm 0.00 in/hr0.0 mm/hr 0.00 in0.0 mm
06:30 PM 87.8°F31.0°C 78.9°F26.1°C 75% 0.5 mph WNW0.8 kmh WNW 1.5 mph2.4 kmh 29.84 in1010.5 mb 0.00 in0.0 mm 0.00 in/hr0.0 mm/hr 0.00 in0.0 mm
06:15 PM 88.6°F31.4°C 79.2°F26.2°C 74% 0.1 mph SW0.2 kmh SW 1.5 mph2.4 kmh 29.84 in1010.5 mb 0.00 in0.0 mm 0.00 in/hr0.0 mm/hr 0.00 in0.0 mm
06:00 PM 87.8°F31.0°C 79.3°F26.3°C 76% 0.4 mph N0.6 kmh N 1.5 mph2.4 kmh 29.85 in1010.8 mb 0.00 in0.0 mm 0.00 in/hr0.0 mm/hr 0.00 in0.0 mm
05:45 PM 87.0°F30.6°C 79.3°F26.3°C 78% 0.1 mph W0.2 kmh W 0.8 mph1.3 kmh 29.84 in1010.5 mb 0.00 in0.0 mm 0.00 in/hr0.0 mm/hr 0.00 in0.0 mm
05:30 PM 86.7°F30.4°C 78.6°F25.9°C 77% 0.6 mph E1.0 kmh E 0.8 mph1.3 kmh 29.84 in1010.5 mb 0.00 in0.0 mm 0.00 in/hr0.0 mm/hr 0.00 in0.0 mm
05:15 PM 87.3°F30.7°C 78.8°F26.0°C 76% 2.2 mph SW3.5 kmh SW 4.5 mph7.2 kmh 29.84 in1010.5 mb 0.00 in0.0 mm 0.00 in/hr0.0 mm/hr 0.00 in0.0 mm
05:00 PM 86.7°F30.4°C 79.0°F26.1°C 78% 0.9 mph W1.4 kmh W 1.5 mph2.4 kmh 29.85 in1010.8 mb 0.00 in0.0 mm 0.00 in/hr0.0 mm/hr 0.00 in0.0 mm
04:45 PM 84.6°F29.2°C 77.4°F25.2°C 79% 0.4 mph SW0.6 kmh SW 1.5 mph2.4 kmh 29.85 in1010.8 mb 0.00 in0.0 mm 0.00 in/hr0.0 mm/hr 0.00 in0.0 mm
01:30 AM 71.6°F22.0°C 66.2°F19.0°C 83% 0.9 mph SSW1.4 kmh SSW 1.5 mph2.4 kmh 29.98 in1015.2 mb 0.00 in0.0 mm 0.00 in/hr0.0 mm/hr 0.00 in0.0 mm
01:15 AM 72.1°F22.3°C 66.3°F19.1°C 82% 0.9 mph S1.4 kmh S 1.5 mph2.4 kmh 29.98 in1015.2 mb 0.00 in0.0 mm 0.00 in/hr0.0 mm/hr 0.00 in0.0 mm
01:00 AM 72.4°F22.4°C 66.3°F19.1°C 81% 1.2 mph S1.9 kmh S 1.5 mph2.4 kmh 29.98 in1015.2 mb 0.00 in0.0 mm 0.00 in/hr0.0 mm/hr 0.00 in0.0 mm
12:45 AM 72.5°F22.5°C 66.3°F19.1°C 81% 1.1 mph S1.8 kmh S 1.5 mph2.4 kmh 29.97 in1014.9 mb 0.00 in0.0 mm 0.00 in/hr0.0 mm/hr 0.00 in0.0 mm
12:30 AM 72.6°F22.6°C 66.4°F19.1°C 81% 0.9 mph SSE1.4 kmh SSE 1.5 mph2.4 kmh 29.98 in1015.2 mb 0.00 in0.0 mm 0.00 in/hr0.0 mm/hr 0.00 in0.0 mm
12:15 AM 72.9°F22.7°C 66.4°F19.1°C 80% 0.6 mph S1.0 kmh S 1.5 mph2.4 kmh 29.98 in1015.2 mb 0.00 in0.0 mm 0.00 in/hr0.0 mm/hr 0.00 in0.0 mm
12:00 AM 73.2°F22.9°C 66.3°F19.1°C 79% 1.3 mph S2.1 kmh S 1.5 mph2.4 kmh 29.98 in1015.2 mb 0.00 in0.0 mm 0.00 in/hr0.0 mm/hr 0.00 in0.0 mm